Time;durP1;ratioP1;P1;durP2;ratioP2;P2;SDS_P1;SDS_P2;PMS_P1;PMS_P2;Temp;Humidity;BMP_temperature;BMP_pressure;BME280_temperature;BME280_humidity;BME280_pressure;Samples;Min_cycle;Max_cycle;Signal;HPM_P1;HPM_P2
2023/07/01 00:00:42;;;;;;;12.55;2.60;;;;;;;;;;5033608;28;20041;-50
2023/07/01 00:03:09;;;;;;;8.73;2.67;;;;;;;;;;5033970;28;20064;-46
2023/07/01 00:05:37;;;;;;;12.00;2.70;;;;;;;;;;5033086;28;20033;-51
2023/07/01 00:08:04;;;;;;;6.90;2.90;;;;;;;;;;5044222;28;20033;-47
2023/07/01 00:10:31;;;;;;;8.93;2.80;;;;;;;;;;5048773;28;20021;-47
2023/07/01 00:12:58;;;;;;;14.05;2.95;;;;;;;;;;5039908;28;20033;-49
2023/07/01 00:15:25;;;;;;;9.80;2.75;;;;;;;;;;5053617;28;20044;-47
2023/07/01 00:17:54;;;;;;;12.27;2.95;;;;;;;;;;5053786;28;20021;-51
2023/07/01 00:20:27;;;;;;;10.90;2.53;;;;;;;;;;5053476;28;20065;-48
2023/07/01 00:22:54;;;;;;;6.82;2.85;;;;;;;;;;5053359;28;20063;-47
2023/07/01 00:25:23;;;;;;;6.75;2.72;;;;;;;;;;5043688;28;20029;-46
2023/07/01 00:27:50;;;;;;;9.52;2.72;;;;;;;;;;5053744;28;20048;-45
2023/07/01 00:30:17;;;;;;;10.45;2.35;;;;;;;;;;5053611;28;20025;-46
2023/07/01 00:32:44;;;;;;;9.23;2.40;;;;;;;;;;5053140;28;20044;-45
2023/07/01 00:35:11;;;;;;;6.93;2.38;;;;;;;;;;5053565;28;20017;-45
2023/07/01 00:37:38;;;;;;;11.98;2.90;;;;;;;;;;5053140;28;20063;-45
2023/07/01 00:40:05;;;;;;;7.90;3.08;;;;;;;;;;5052749;28;20025;-47
2023/07/01 00:42:32;;;;;;;22.30;3.38;;;;;;;;;;5053294;28;20021;-47
2023/07/01 00:44:59;;;;;;;10.07;3.80;;;;;;;;;;5053630;28;20033;-47
2023/07/01 00:47:26;;;;;;;10.20;3.50;;;;;;;;;;5053271;28;20479;-47
2023/07/01 00:49:54;;;;;;;19.10;4.50;;;;;;;;;;5053406;28;20104;-46
2023/07/01 00:52:21;;;;;;;17.83;4.43;;;;;;;;;;5053018;28;20219;-45
2023/07/01 00:54:48;;;;;;;16.40;4.70;;;;;;;;;;5053075;28;20029;-47
2023/07/01 00:57:15;;;;;;;22.02;5.20;;;;;;;;;;5053004;28;20036;-45
2023/07/01 00:59:42;;;;;;;13.85;4.22;;;;;;;;;;5053077;28;20033;-46
2023/07/01 01:02:13;;;;;;;19.40;5.00;;;;;;;;;;5053127;28;20024;-45
2023/07/01 01:04:44;;;;;;;11.98;4.93;;;;;;;;;;5051825;28;20068;-47
2023/07/01 01:07:30;;;;;;;12.68;4.97;;;;;;;;;;5052919;28;20048;-47
2023/07/01 01:10:01;;;;;;;17.60;5.03;;;;;;;;;;5052049;28;20033;-45
2023/07/01 01:12:29;;;;;;;14.10;4.45;;;;;;;;;;5052588;28;20060;-47
2023/07/01 01:14:57;;;;;;;14.35;4.72;;;;;;;;;;5052835;28;20042;-46
2023/07/01 01:17:25;;;;;;;12.82;4.13;;;;;;;;;;5052452;28;20036;-47
2023/07/01 01:20:00;;;;;;;16.30;4.05;;;;;;;;;;5052546;28;20029;-47
2023/07/01 01:22:30;;;;;;;13.75;4.60;;;;;;;;;;5052533;28;20044;-46
2023/07/01 01:24:59;;;;;;;16.30;4.60;;;;;;;;;;5052571;28;20586;-46
2023/07/01 01:27:29;;;;;;;9.45;3.63;;;;;;;;;;5052676;28;20076;-45
2023/07/01 01:29:56;;;;;;;11.57;4.28;;;;;;;;;;5052443;28;20013;-48
2023/07/01 01:32:23;;;;;;;12.82;4.38;;;;;;;;;;5052341;28;20108;-46
2023/07/01 01:34:50;;;;;;;10.05;4.25;;;;;;;;;;5052264;28;20510;-47
2023/07/01 01:37:22;;;;;;;10.60;3.92;;;;;;;;;;5052572;28;20106;-45
2023/07/01 01:39:51;;;;;;;7.63;3.78;;;;;;;;;;5052195;28;20040;-46
2023/07/01 01:42:21;;;;;;;11.02;4.05;;;;;;;;;;5052345;28;20021;-46
2023/07/01 01:44:52;;;;;;;9.18;3.60;;;;;;;;;;5063247;28;20040;-45
2023/07/01 01:47:20;;;;;;;9.90;4.00;;;;;;;;;;5052225;28;20099;-46
2023/07/01 01:49:49;;;;;;;9.07;3.90;;;;;;;;;;5051866;28;20104;-46
2023/07/01 01:52:17;;;;;;;10.02;3.90;;;;;;;;;;5051562;28;20047;-46
2023/07/01 01:54:48;;;;;;;9.23;3.58;;;;;;;;;;5052155;28;20024;-45
2023/07/01 01:57:16;;;;;;;8.40;3.47;;;;;;;;;;5051370;28;20048;-46
2023/07/01 01:59:46;;;;;;;8.32;3.60;;;;;;;;;;5051526;28;20029;-45
2023/07/01 02:02:13;;;;;;;11.23;3.97;;;;;;;;;;5048685;28;20091;-47
2023/07/01 02:04:40;;;;;;;9.32;3.97;;;;;;;;;;5051096;28;20036;-47
2023/07/01 02:07:07;;;;;;;12.15;3.65;;;;;;;;;;5051222;28;20029;-46
2023/07/01 02:09:34;;;;;;;8.82;3.92;;;;;;;;;;5051192;28;20021;-45
2023/07/01 02:12:01;;;;;;;8.05;4.07;;;;;;;;;;5051056;28;20120;-46
2023/07/01 02:14:28;;;;;;;8.25;3.13;;;;;;;;;;5050791;28;20082;-46
2023/07/01 02:16:55;;;;;;;8.43;3.90;;;;;;;;;;5041084;28;20025;-46
2023/07/01 02:19:22;;;;;;;12.23;4.22;;;;;;;;;;5042050;28;20017;-45
2023/07/01 02:21:49;;;;;;;8.05;3.72;;;;;;;;;;5040241;28;20052;-47
2023/07/01 02:24:17;;;;;;;9.00;3.90;;;;;;;;;;5037222;28;20103;-46
2023/07/01 02:26:45;;;;;;;7.20;3.33;;;;;;;;;;5041894;28;20029;-48
2023/07/01 02:29:12;;;;;;;10.20;3.70;;;;;;;;;;5040335;28;20052;-49
2023/07/01 02:31:39;;;;;;;10.93;3.75;;;;;;;;;;5040373;28;20473;-46
2023/07/01 02:34:06;;;;;;;7.15;3.42;;;;;;;;;;5041864;28;20033;-47
2023/07/01 02:36:33;;;;;;;7.38;3.42;;;;;;;;;;5040495;28;20025;-45
2023/07/01 02:39:00;;;;;;;7.68;3.40;;;;;;;;;;5041982;28;20021;-46
2023/07/01 02:41:27;;;;;;;7.72;3.28;;;;;;;;;;5041709;28;20032;-46
2023/07/01 02:43:54;;;;;;;4.80;3.05;;;;;;;;;;5040635;28;20028;-45
2023/07/01 02:46:21;;;;;;;10.52;3.85;;;;;;;;;;5045737;28;20056;-46
2023/07/01 02:48:48;;;;;;;6.53;3.05;;;;;;;;;;5051502;28;20036;-46
2023/07/01 02:51:15;;;;;;;8.38;3.42;;;;;;;;;;5051222;28;20045;-51
2023/07/01 02:53:42;;;;;;;6.25;3.30;;;;;;;;;;5051402;28;20062;-46
2023/07/01 02:56:09;;;;;;;7.25;2.95;;;;;;;;;;5051471;28;20028;-47
2023/07/01 02:58:36;;;;;;;5.57;3.00;;;;;;;;;;5051279;28;20036;-46
2023/07/01 03:01:03;;;;;;;8.60;3.10;;;;;;;;;;5051068;28;20037;-47
2023/07/01 03:03:30;;;;;;;6.95;3.40;;;;;;;;;;5055157;28;20036;-47
2023/07/01 03:05:57;;;;;;;9.23;3.08;;;;;;;;;;5055592;28;20021;-48
2023/07/01 03:08:24;;;;;;;5.75;3.20;;;;;;;;;;5055394;28;20021;-46
2023/07/01 03:10:51;;;;;;;6.65;3.10;;;;;;;;;;5055214;28;20045;-46
2023/07/01 03:13:18;;;;;;;5.15;2.85;;;;;;;;;;5055206;28;20503;-47
2023/07/01 03:15:45;;;;;;;5.72;3.00;;;;;;;;;;5055239;28;20360;-46
2023/07/01 03:18:12;;;;;;;6.53;2.70;;;;;;;;;;5055352;28;20155;-46
2023/07/01 03:20:39;;;;;;;7.90;2.70;;;;;;;;;;5055234;28;20402;-45
2023/07/01 03:23:06;;;;;;;5.95;3.10;;;;;;;;;;5054878;28;20540;-46
2023/07/01 03:25:35;;;;;;;7.18;2.95;;;;;;;;;;5055069;28;20029;-46
2023/07/01 03:28:03;;;;;;;4.50;2.63;;;;;;;;;;5054990;28;20112;-46
2023/07/01 03:30:30;;;;;;;6.53;2.45;;;;;;;;;;5054970;28;20057;-48
2023/07/01 03:32:57;;;;;;;7.80;2.55;;;;;;;;;;5054892;28;20032;-45
2023/07/01 03:35:24;;;;;;;5.25;3.03;;;;;;;;;;5054935;28;20036;-45
2023/07/01 03:37:51;;;;;;;5.18;2.15;;;;;;;;;;5054824;28;20028;-45
2023/07/01 03:40:18;;;;;;;5.80;2.80;;;;;;;;;;5054974;28;20868;-47
2023/07/01 03:42:46;;;;;;;5.80;2.88;;;;;;;;;;5054779;28;20021;-46
2023/07/01 03:45:13;;;;;;;3.80;2.40;;;;;;;;;;5054879;28;20504;-47
2023/07/01 03:47:43;;;;;;;5.25;2.70;;;;;;;;;;5054528;28;20052;-47
2023/07/01 03:50:10;;;;;;;4.88;2.53;;;;;;;;;;5054606;28;20510;-46
2023/07/01 03:52:38;;;;;;;4.45;2.65;;;;;;;;;;5054619;28;20033;-47
2023/07/01 03:55:05;;;;;;;4.70;2.75;;;;;;;;;;5054620;28;20075;-45
2023/07/01 03:57:33;;;;;;;6.78;2.65;;;;;;;;;;5054463;28;20059;-45
2023/07/01 04:00:00;;;;;;;6.15;2.38;;;;;;;;;;5054589;28;20812;-46
2023/07/01 04:02:28;;;;;;;4.30;2.38;;;;;;;;;;5054159;28;20486;-45
2023/07/01 04:04:54;;;;;;;4.43;2.53;;;;;;;;;;5054282;28;20074;-47
2023/07/01 04:07:23;;;;;;;4.53;2.38;;;;;;;;;;5054432;28;20025;-45
2023/07/01 04:09:50;;;;;;;6.20;2.60;;;;;;;;;;5054352;28;20116;-45
2023/07/01 04:12:18;;;;;;;3.63;2.20;;;;;;;;;;5054209;28;20037;-45
2023/07/01 04:14:45;;;;;;;4.63;2.47;;;;;;;;;;5054491;28;20482;-45
2023/07/01 04:17:12;;;;;;;5.25;2.67;;;;;;;;;;5054291;28;20021;-48
2023/07/01 04:19:39;;;;;;;4.75;2.45;;;;;;;;;;5054269;28;20029;-47
2023/07/01 04:22:06;;;;;;;3.65;2.20;;;;;;;;;;5054124;28;20047;-47
2023/07/01 04:24:33;;;;;;;4.38;2.33;;;;;;;;;;5054092;28;20052;-47
2023/07/01 04:27:00;;;;;;;3.83;2.17;;;;;;;;;;5054012;28;20028;-46
2023/07/01 04:29:27;;;;;;;4.57;2.40;;;;;;;;;;5054055;28;20537;-47
2023/07/01 04:31:54;;;;;;;5.82;2.40;;;;;;;;;;5053799;28;20083;-46
2023/07/01 04:34:21;;;;;;;3.97;2.22;;;;;;;;;;5053911;28;20035;-48
2023/07/01 04:36:48;;;;;;;5.10;2.30;;;;;;;;;;5053996;28;20372;-47
2023/07/01 04:39:15;;;;;;;4.45;2.17;;;;;;;;;;5053771;28;20029;-48
2023/07/01 04:41:42;;;;;;;4.60;2.22;;;;;;;;;;5053791;28;20027;-46
2023/07/01 04:44:09;;;;;;;4.40;2.00;;;;;;;;;;5053828;28;20035;-46
2023/07/01 04:46:36;;;;;;;5.38;2.35;;;;;;;;;;5053752;28;20029;-47
2023/07/01 04:49:03;;;;;;;3.38;2.00;;;;;;;;;;5053753;28;20033;-49
2023/07/01 04:51:30;;;;;;;5.03;2.20;;;;;;;;;;5053574;28;20033;-46
2023/07/01 04:53:57;;;;;;;4.30;2.30;;;;;;;;;;5053600;28;20040;-47
2023/07/01 04:56:25;;;;;;;4.45;2.40;;;;;;;;;;5053467;28;20036;-46
2023/07/01 04:58:53;;;;;;;3.28;2.05;;;;;;;;;;5060622;28;20068;-47
2023/07/01 05:01:20;;;;;;;4.13;2.10;;;;;;;;;;5073459;28;20071;-46
2023/07/01 05:03:47;;;;;;;3.78;1.88;;;;;;;;;;5073243;28;20064;-46
2023/07/01 05:06:14;;;;;;;4.00;1.90;;;;;;;;;;5073461;28;20040;-46
2023/07/01 05:08:41;;;;;;;2.90;1.92;;;;;;;;;;5073356;28;20033;-46
2023/07/01 05:11:08;;;;;;;3.67;2.00;;;;;;;;;;5073125;28;20597;-46
2023/07/01 05:13:35;;;;;;;5.35;2.42;;;;;;;;;;5073168;28;20078;-46
2023/07/01 05:16:02;;;;;;;5.43;2.38;;;;;;;;;;5073163;28;20114;-47
2023/07/01 05:18:29;;;;;;;6.60;2.13;;;;;;;;;;5073165;28;20486;-47
2023/07/01 05:20:56;;;;;;;5.05;2.00;;;;;;;;;;5073042;28;20036;-46
2023/07/01 05:23:23;;;;;;;5.07;1.88;;;;;;;;;;5072879;28;20048;-47
2023/07/01 05:25:50;;;;;;;3.17;1.98;;;;;;;;;;5072521;28;20025;-46
2023/07/01 05:28:17;;;;;;;3.47;1.90;;;;;;;;;;5072918;28;20498;-46
2023/07/01 05:30:44;;;;;;;7.10;2.20;;;;;;;;;;5072704;28;20482;-46
2023/07/01 05:33:11;;;;;;;4.07;1.98;;;;;;;;;;5072805;28;20032;-47
2023/07/01 05:35:38;;;;;;;3.15;2.00;;;;;;;;;;5072752;28;20078;-46
2023/07/01 05:38:11;;;;;;;4.95;2.00;;;;;;;;;;5072731;28;20020;-46
2023/07/01 05:40:38;;;;;;;5.70;1.88;;;;;;;;;;5072694;28;20555;-46
2023/07/01 05:43:06;;;;;;;4.35;1.95;;;;;;;;;;5072536;28;20107;-47
2023/07/01 05:45:33;;;;;;;3.58;1.80;;;;;;;;;;5072556;28;20047;-47
2023/07/01 05:48:00;;;;;;;2.45;1.77;;;;;;;;;;5072653;28;20031;-47
2023/07/01 05:50:27;;;;;;;5.35;1.73;;;;;;;;;;5072468;28;20036;-47
2023/07/01 05:52:54;;;;;;;3.13;1.70;;;;;;;;;;5072291;28;20051;-46
2023/07/01 05:55:21;;;;;;;4.90;1.88;;;;;;;;;;5072341;28;20441;-46
2023/07/01 05:57:48;;;;;;;4.97;1.77;;;;;;;;;;5072228;28;20390;-46
2023/07/01 06:00:15;;;;;;;3.45;1.80;;;;;;;;;;5072400;28;20033;-46
2023/07/01 06:02:42;;;;;;;2.40;1.80;;;;;;;;;;5053929;28;20504;-46
2023/07/01 06:05:10;;;;;;;3.13;2.00;;;;;;;;;;5052259;28;20035;-45
2023/07/01 06:07:37;;;;;;;3.03;1.80;;;;;;;;;;5052230;28;20025;-45
2023/07/01 06:10:04;;;;;;;2.95;1.77;;;;;;;;;;5052220;28;20107;-45
2023/07/01 06:12:31;;;;;;;4.38;2.10;;;;;;;;;;5052018;28;20055;-45
2023/07/01 06:14:58;;;;;;;2.92;1.88;;;;;;;;;;5052011;28;20560;-47
2023/07/01 06:17:26;;;;;;;2.53;1.75;;;;;;;;;;5052019;28;20024;-45
2023/07/01 06:19:53;;;;;;;4.82;1.80;;;;;;;;;;5052029;28;20025;-45
2023/07/01 06:22:19;;;;;;;2.75;1.52;;;;;;;;;;5051382;28;20025;-46
2023/07/01 06:24:46;;;;;;;3.97;1.67;;;;;;;;;;5050455;28;20202;-45
2023/07/01 06:27:13;;;;;;;4.07;1.77;;;;;;;;;;5051846;28;20070;-46
2023/07/01 06:29:40;;;;;;;3.75;1.77;;;;;;;;;;5051842;28;20044;-47
2023/07/01 06:32:08;;;;;;;2.60;1.70;;;;;;;;;;5051893;28;20387;-47
2023/07/01 06:34:35;;;;;;;3.85;1.73;;;;;;;;;;5051779;28;20390;-45
2023/07/01 06:37:02;;;;;;;2.22;1.55;;;;;;;;;;5050851;28;20413;-45
2023/07/01 06:39:29;;;;;;;2.45;1.77;;;;;;;;;;5051610;28;20067;-46
2023/07/01 06:41:56;;;;;;;3.53;1.70;;;;;;;;;;5050242;28;20540;-45
2023/07/01 06:44:23;;;;;;;3.22;1.80;;;;;;;;;;5051653;28;20021;-45
2023/07/01 06:46:50;;;;;;;3.83;1.65;;;;;;;;;;5051571;28;20025;-45
2023/07/01 06:49:17;;;;;;;2.95;1.77;;;;;;;;;;5051591;28;20108;-46
2023/07/01 06:51:44;;;;;;;4.07;1.80;;;;;;;;;;5051417;28;20029;-45
2023/07/01 06:54:11;;;;;;;2.50;1.85;;;;;;;;;;5051369;28;20040;-45
2023/07/01 06:56:38;;;;;;;2.72;1.80;;;;;;;;;;5051414;28;20037;-45
2023/07/01 06:59:05;;;;;;;4.15;1.80;;;;;;;;;;5051447;28;20040;-45
2023/07/01 07:01:32;;;;;;;3.22;1.88;;;;;;;;;;5051367;28;20072;-45
2023/07/01 07:03:59;;;;;;;3.47;2.08;;;;;;;;;;5051418;28;20592;-46
2023/07/01 07:06:26;;;;;;;2.60;1.73;;;;;;;;;;5051439;28;20033;-49
2023/07/01 07:08:53;;;;;;;3.42;1.67;;;;;;;;;;5051427;28;20079;-46
2023/07/01 07:11:20;;;;;;;3.55;1.90;;;;;;;;;;5051152;28;20387;-46
2023/07/01 07:13:47;;;;;;;2.92;1.70;;;;;;;;;;5051166;28;20110;-46
2023/07/01 07:16:14;;;;;;;3.65;1.73;;;;;;;;;;5051310;28;20029;-49
2023/07/01 07:18:41;;;;;;;4.32;1.88;;;;;;;;;;5051333;28;20028;-48
2023/07/01 07:21:08;;;;;;;3.70;1.75;;;;;;;;;;5051213;28;20029;-46
2023/07/01 07:23:35;;;;;;;2.42;1.70;;;;;;;;;;5051060;28;20051;-50
2023/07/01 07:26:02;;;;;;;3.40;1.90;;;;;;;;;;5051253;28;20025;-47
2023/07/01 07:28:29;;;;;;;4.00;1.75;;;;;;;;;;5051171;28;20033;-48
2023/07/01 07:30:56;;;;;;;2.58;1.50;;;;;;;;;;5051148;28;20025;-46
2023/07/01 07:33:24;;;;;;;2.60;1.67;;;;;;;;;;5051107;28;20056;-47
2023/07/01 07:35:51;;;;;;;2.70;1.80;;;;;;;;;;5051065;28;20033;-47
2023/07/01 07:38:18;;;;;;;2.97;1.80;;;;;;;;;;5051157;28;20032;-46
2023/07/01 07:40:45;;;;;;;6.45;2.10;;;;;;;;;;5051011;28;20045;-47
2023/07/01 07:43:12;;;;;;;4.45;1.83;;;;;;;;;;5051112;28;20041;-47
2023/07/01 07:45:39;;;;;;;2.25;1.50;;;;;;;;;;5050991;28;20398;-46
2023/07/01 07:48:06;;;;;;;4.32;2.17;;;;;;;;;;5052246;28;20029;-48
2023/07/01 07:50:35;;;;;;;3.10;1.70;;;;;;;;;;5054758;28;20029;-46
2023/07/01 07:53:03;;;;;;;2.30;1.58;;;;;;;;;;5054530;28;20052;-47
2023/07/01 07:55:33;;;;;;;4.47;2.00;;;;;;;;;;5054772;28;20036;-47
2023/07/01 07:58:03;;;;;;;4.22;1.83;;;;;;;;;;5054566;28;20142;-46
2023/07/01 08:00:30;;;;;;;4.03;1.75;;;;;;;;;;5054542;28;20100;-47
2023/07/01 08:02:58;;;;;;;3.38;1.60;;;;;;;;;;5054614;28;20111;-46
2023/07/01 08:05:26;;;;;;;3.08;1.73;;;;;;;;;;5054541;28;20067;-47
2023/07/01 08:07:53;;;;;;;2.45;1.70;;;;;;;;;;5054680;28;20039;-46
2023/07/01 08:10:20;;;;;;;2.83;1.65;;;;;;;;;;5054430;28;20072;-46
2023/07/01 08:12:47;;;;;;;3.53;1.65;;;;;;;;;;5054273;28;20059;-47
2023/07/01 08:15:14;;;;;;;2.58;1.60;;;;;;;;;;5054355;28;20509;-46
2023/07/01 08:17:41;;;;;;;2.10;1.50;;;;;;;;;;5054256;28;20025;-47
2023/07/01 08:20:08;;;;;;;4.72;1.70;;;;;;;;;;5054207;28;20056;-46
2023/07/01 08:22:36;;;;;;;3.03;1.70;;;;;;;;;;5053977;28;20104;-47
2023/07/01 08:25:03;;;;;;;4.45;1.60;;;;;;;;;;5054102;28;20032;-46
2023/07/01 08:27:30;;;;;;;2.40;1.50;;;;;;;;;;5052763;28;20438;-47
2023/07/01 08:29:57;;;;;;;2.35;1.45;;;;;;;;;;5054070;28;20025;-47
2023/07/01 08:32:24;;;;;;;2.83;1.52;;;;;;;;;;5053869;28;20399;-46
2023/07/01 08:34:51;;;;;;;2.30;1.50;;;;;;;;;;5054002;28;20025;-47
2023/07/01 08:37:18;;;;;;;2.08;1.60;;;;;;;;;;5053963;28;20070;-49
2023/07/01 08:39:45;;;;;;;2.20;1.50;;;;;;;;;;5053890;28;20029;-46
2023/07/01 08:42:17;;;;;;;2.80;1.60;;;;;;;;;;5053810;28;20029;-47
2023/07/01 08:44:46;;;;;;;4.40;1.63;;;;;;;;;;5053858;28;20051;-46
2023/07/01 08:47:13;;;;;;;2.65;1.50;;;;;;;;;;5053694;28;20021;-47
2023/07/01 08:49:41;;;;;;;3.03;1.70;;;;;;;;;;5053766;28;20086;-46
2023/07/01 08:52:11;;;;;;;2.10;1.60;;;;;;;;;;5053482;28;20053;-46
2023/07/01 08:54:39;;;;;;;2.35;1.58;;;;;;;;;;5053584;28;20025;-46
2023/07/01 08:57:06;;;;;;;2.10;1.38;;;;;;;;;;5053601;28;20029;-46
2023/07/01 08:59:33;;;;;;;2.75;1.67;;;;;;;;;;5052706;28;20037;-46
2023/07/01 09:02:01;;;;;;;3.03;1.63;;;;;;;;;;5053420;28;20032;-46
2023/07/01 09:04:28;;;;;;;2.83;1.70;;;;;;;;;;5053239;28;20110;-46
2023/07/01 09:06:55;;;;;;;2.08;1.30;;;;;;;;;;5053362;28;20025;-46
2023/07/01 09:09:22;;;;;;;2.92;1.85;;;;;;;;;;5053390;28;20435;-46
2023/07/01 09:11:49;;;;;;;3.20;1.60;;;;;;;;;;5053261;28;20533;-46
2023/07/01 09:14:16;;;;;;;2.13;1.48;;;;;;;;;;5053101;28;20041;-47
2023/07/01 09:16:43;;;;;;;2.10;1.40;;;;;;;;;;5053191;28;20063;-47
2023/07/01 09:19:14;;;;;;;2.10;1.25;;;;;;;;;;5053113;28;20108;-46
2023/07/01 09:21:41;;;;;;;2.00;1.30;;;;;;;;;;5053018;28;20025;-46
2023/07/01 09:24:10;;;;;;;1.92;1.50;;;;;;;;;;5052800;28;20141;-47
2023/07/01 09:26:37;;;;;;;2.22;1.40;;;;;;;;;;5052928;28;20029;-46
2023/07/01 09:29:12;;;;;;;1.83;1.33;;;;;;;;;;5052965;28;20021;-46
2023/07/01 09:31:47;;;;;;;2.53;1.60;;;;;;;;;;5052788;28;20043;-46
2023/07/01 09:34:14;;;;;;;3.53;1.55;;;;;;;;;;5052706;28;20060;-46
2023/07/01 09:36:41;;;;;;;2.33;1.38;;;;;;;;;;5052852;28;20104;-45
2023/07/01 09:39:08;;;;;;;2.28;1.40;;;;;;;;;;5052631;28;20029;-45
2023/07/01 09:41:35;;;;;;;2.20;1.38;;;;;;;;;;5052690;28;20031;-45
2023/07/01 09:44:14;;;;;;;3.13;1.80;;;;;;;;;;5052766;28;20486;-47
2023/07/01 09:46:42;;;;;;;3.03;1.55;;;;;;;;;;5051363;28;20390;-45
2023/07/01 09:49:09;;;;;;;2.70;1.20;;;;;;;;;;5052551;28;20063;-45
2023/07/01 09:51:46;;;;;;;2.25;1.20;;;;;;;;;;5051060;28;20025;-46
2023/07/01 09:54:28;;;;;;;3.30;1.58;;;;;;;;;;5052479;28;20037;-46
2023/07/01 09:56:55;;;;;;;;;;;;;;;;;;5032961;28;20080;-45
2023/07/01 09:59:23;;;;;;;2.05;1.40;;;;;;;;;;5032440;28;20337;-45
2023/07/01 10:01:54;;;;;;;1.80;1.33;;;;;;;;;;5032403;28;20388;-45
2023/07/01 10:04:25;;;;;;;3.05;1.52;;;;;;;;;;5032475;28;20065;-45
2023/07/01 10:06:53;;;;;;;3.17;1.30;;;;;;;;;;5032381;28;20033;-45
2023/07/01 10:09:23;;;;;;;2.78;1.50;;;;;;;;;;5032351;28;20104;-45
2023/07/01 10:11:52;;;;;;;3.95;1.50;;;;;;;;;;5032038;28;20037;-45
2023/07/01 10:14:20;;;;;;;1.67;1.40;;;;;;;;;;5032240;28;20423;-45
2023/07/01 10:16:47;;;;;;;2.33;1.40;;;;;;;;;;5032343;28;20032;-45
2023/07/01 10:19:28;;;;;;;3.60;1.50;;;;;;;;;;5028927;28;20144;-46
2023/07/01 10:22:14;;;;;;;2.47;1.67;;;;;;;;;;5032261;28;20446;-46
2023/07/01 10:24:42;;;;;;;2.95;1.63;;;;;;;;;;5031921;28;20136;-45
2023/07/01 10:27:09;;;;;;;3.75;1.70;;;;;;;;;;5032017;28;20029;-46
2023/07/01 10:29:39;;;;;;;2.17;1.70;;;;;;;;;;5032009;28;20018;-45
2023/07/01 10:32:09;;;;;;;2.67;1.90;;;;;;;;;;5031812;28;20483;-45
2023/07/01 10:35:00;;;;;;;2.65;1.70;;;;;;;;;;5031808;28;20506;-45
2023/07/01 10:37:28;;;;;;;3.67;2.10;;;;;;;;;;5031885;28;20036;-47
2023/07/01 10:39:55;;;;;;;2.83;1.70;;;;;;;;;;5031862;28;20501;-46
2023/07/01 10:42:33;;;;;;;2.75;2.00;;;;;;;;;;5031640;28;20037;-45
2023/07/01 10:45:20;;;;;;;2.22;1.90;;;;;;;;;;5031858;28;20115;-45
2023/07/01 10:47:48;;;;;;;2.88;1.90;;;;;;;;;;5018432;28;20034;-45
2023/07/01 10:50:16;;;;;;;3.22;1.90;;;;;;;;;;5031632;28;20112;-45
2023/07/01 10:52:58;;;;;;;3.22;2.00;;;;;;;;;;5031726;28;20034;-45
2023/07/01 10:55:49;;;;;;;4.15;2.00;;;;;;;;;;5031710;28;20030;-45
2023/07/01 10:58:27;;;;;;;3.00;2.00;;;;;;;;;;5022141;28;20042;-45
2023/07/01 11:00:57;;;;;;;2.50;1.83;;;;;;;;;;5031504;28;20384;-46
2023/07/01 11:03:39;;;;;;;2.70;1.80;;;;;;;;;;5031669;28;20052;-45
2023/07/01 11:06:07;;;;;;;3.10;1.90;;;;;;;;;;5031618;28;20373;-45
2023/07/01 11:08:35;;;;;;;2.60;1.73;;;;;;;;;;5031575;28;20132;-46
2023/07/01 11:11:03;;;;;;;4.18;1.80;;;;;;;;;;5031532;28;20025;-45
2023/07/01 11:13:30;;;;;;;2.53;1.90;;;;;;;;;;5031404;28;20167;-46
2023/07/01 11:16:04;;;;;;;3.20;2.10;;;;;;;;;;5031513;28;20030;-46
2023/07/01 11:18:44;;;;;;;2.35;1.88;;;;;;;;;;5031546;28;20040;-47
2023/07/01 11:21:12;;;;;;;2.95;2.00;;;;;;;;;;5048576;28;20040;-47
2023/07/01 11:23:43;;;;;;;3.35;1.95;;;;;;;;;;5053218;28;20503;-47
2023/07/01 11:26:10;;;;;;;2.92;2.00;;;;;;;;;;5043573;28;20155;-45
2023/07/01 11:28:38;;;;;;;3.88;1.83;;;;;;;;;;5035041;28;20033;-45
2023/07/01 11:31:11;;;;;;;6.55;1.90;;;;;;;;;;5034998;28;20036;-47
2023/07/01 11:33:37;;;;;;;6.15;2.22;;;;;;;;;;5034893;28;20029;-45
2023/07/01 11:36:05;;;;;;;2.03;1.38;;;;;;;;;;5035256;28;20041;-47
2023/07/01 11:38:33;;;;;;;4.28;1.77;;;;;;;;;;5034924;28;20061;-46
2023/07/01 11:41:00;;;;;;;7.90;1.92;;;;;;;;;;5036733;28;20501;-46
2023/07/01 11:43:28;;;;;;;5.18;2.10;;;;;;;;;;5034632;28;20037;-46
2023/07/01 11:45:55;;;;;;;10.02;1.70;;;;;;;;;;5034588;28;20037;-52
2023/07/01 11:48:32;;;;;;;5.93;1.90;;;;;;;;;;5033007;28;20040;-52
2023/07/01 11:50:59;;;;;;;7.65;1.92;;;;;;;;;;5034512;28;20037;-50
2023/07/01 11:53:27;;;;;;;4.00;1.80;;;;;;;;;;5034476;28;20387;-47
2023/07/01 11:56:04;;;;;;;2.80;1.90;;;;;;;;;;5034496;28;20040;-45
2023/07/01 11:58:31;;;;;;;3.97;2.05;;;;;;;;;;5033324;28;20467;-46
2023/07/01 12:00:59;;;;;;;3.10;1.88;;;;;;;;;;5033938;28;20119;-47
2023/07/01 12:03:33;;;;;;;4.38;2.10;;;;;;;;;;5034454;28;20028;-48
2023/07/01 12:06:00;;;;;;;3.63;1.98;;;;;;;;;;5028048;28;20033;-46
2023/07/01 12:08:27;;;;;;;4.78;1.85;;;;;;;;;;5034181;28;20375;-45
2023/07/01 12:10:54;;;;;;;4.35;1.90;;;;;;;;;;5032609;28;20033;-45
2023/07/01 12:13:31;;;;;;;6.55;1.90;;;;;;;;;;5033986;28;20037;-48
2023/07/01 12:15:59;;;;;;;5.05;1.80;;;;;;;;;;5034080;28;20048;-47
2023/07/01 12:18:29;;;;;;;3.92;1.80;;;;;;;;;;5034041;28;20017;-46
2023/07/01 12:20:57;;;;;;;10.30;2.10;;;;;;;;;;5032403;28;20053;-47
2023/07/01 12:23:24;;;;;;;4.18;2.20;;;;;;;;;;5033665;28;20048;-49
2023/07/01 12:25:51;;;;;;;7.13;1.67;;;;;;;;;;5033732;28;20030;-47
2023/07/01 12:28:21;;;;;;;4.55;2.00;;;;;;;;;;5038620;28;20029;-50
2023/07/01 12:30:48;;;;;;;6.30;1.85;;;;;;;;;;5053645;28;20040;-50
2023/07/01 12:33:15;;;;;;;10.50;1.88;;;;;;;;;;5053810;28;20048;-47
2023/07/01 12:35:42;;;;;;;10.23;2.08;;;;;;;;;;5052533;28;20449;-48
2023/07/01 12:38:14;;;;;;;24.33;1.90;;;;;;;;;;5053971;28;20479;-49
2023/07/01 12:40:41;;;;;;;6.55;2.30;;;;;;;;;;5053918;28;20029;-49
2023/07/01 12:43:08;;;;;;;7.28;1.90;;;;;;;;;;5053931;28;20037;-50
2023/07/01 12:45:35;;;;;;;7.00;1.95;;;;;;;;;;5053848;28;20021;-50
2023/07/01 12:48:08;;;;;;;6.70;1.95;;;;;;;;;;5053722;28;20037;-48
2023/07/01 12:50:35;;;;;;;4.78;2.00;;;;;;;;;;5053692;28;20088;-49
2023/07/01 12:53:02;;;;;;;7.82;1.90;;;;;;;;;;5053651;28;20588;-48
2023/07/01 12:55:29;;;;;;;7.82;2.08;;;;;;;;;;5053653;28;20165;-49
2023/07/01 12:57:56;;;;;;;3.75;1.60;;;;;;;;;;5053595;28;20428;-49
2023/07/01 13:00:23;;;;;;;8.60;2.00;;;;;;;;;;5053520;28;20108;-49
2023/07/01 13:02:50;;;;;;;8.20;2.20;;;;;;;;;;5053561;28;20032;-50
2023/07/01 13:05:20;;;;;;;3.92;1.90;;;;;;;;;;5053556;28;20043;-48
2023/07/01 13:07:48;;;;;;;4.68;1.80;;;;;;;;;;5053443;28;20491;-49
2023/07/01 13:10:18;;;;;;;4.30;1.83;;;;;;;;;;5053276;28;20090;-49
2023/07/01 13:12:45;;;;;;;4.65;2.13;;;;;;;;;;5053189;28;20044;-50
2023/07/01 13:15:44;;;;;;;4.78;1.65;;;;;;;;;;5053369;28;20104;-48
2023/07/01 13:18:12;;;;;;;5.30;1.80;;;;;;;;;;5009515;28;20040;-48
2023/07/01 13:20:39;;;;;;;5.88;1.67;;;;;;;;;;5053215;28;20033;-50
2023/07/01 13:23:06;;;;;;;3.55;1.65;;;;;;;;;;5053014;28;20079;-48
2023/07/01 13:25:33;;;;;;;4.95;1.80;;;;;;;;;;5052330;28;20116;-48
2023/07/01 13:28:03;;;;;;;5.07;1.95;;;;;;;;;;5047907;28;20487;-50
2023/07/01 13:30:47;;;;;;;4.70;1.85;;;;;;;;;;5049914;28;20412;-49
2023/07/01 13:33:23;;;;;;;7.32;1.98;;;;;;;;;;5049777;28;20691;-47
2023/07/01 13:35:50;;;;;;;8.52;2.00;;;;;;;;;;5052101;28;20067;-50
2023/07/01 13:38:17;;;;;;;6.20;1.90;;;;;;;;;;5052180;28;20020;-52
2023/07/01 13:40:45;;;;;;;5.03;1.80;;;;;;;;;;5051915;28;20529;-52
2023/07/01 13:43:15;;;;;;;10.02;2.00;;;;;;;;;;5049314;28;20017;-48
2023/07/01 13:45:42;;;;;;;6.03;2.08;;;;;;;;;;5049830;28;20029;-47
2023/07/01 13:48:09;;;;;;;2.85;1.88;;;;;;;;;;5051959;28;20036;-49
2023/07/01 13:50:37;;;;;;;5.43;2.00;;;;;;;;;;5051736;28;20032;-50
2023/07/01 13:53:08;;;;;;;3.72;2.00;;;;;;;;;;5051609;28;20093;-48
2023/07/01 13:55:35;;;;;;;4.70;1.83;;;;;;;;;;5048076;28;20045;-47
2023/07/01 13:58:02;;;;;;;9.90;2.40;;;;;;;;;;5051718;28;20028;-46
2023/07/01 14:00:40;;;;;;;4.07;2.08;;;;;;;;;;5051498;28;20024;-46
2023/07/01 14:03:22;;;;;;;8.15;2.10;;;;;;;;;;5051564;28;20051;-50
2023/07/01 14:05:56;;;;;;;8.95;2.75;;;;;;;;;;5050007;28;20020;-57
2023/07/01 14:08:24;;;;;;;8.02;2.58;;;;;;;;;;5051566;28;20446;-51
2023/07/01 14:10:51;;;;;;;9.50;2.70;;;;;;;;;;5051360;28;20111;-48
2023/07/01 14:13:18;;;;;;;9.52;2.60;;;;;;;;;;5051408;28;20082;-47
2023/07/01 14:15:48;;;;;;;7.80;2.53;;;;;;;;;;5050381;28;20040;-48
2023/07/01 14:18:21;;;;;;;5.53;2.50;;;;;;;;;;5048656;28;20047;-47
2023/07/01 14:20:52;;;;;;;7.68;2.47;;;;;;;;;;5051125;28;20398;-46
2023/07/01 14:23:23;;;;;;;9.57;2.63;;;;;;;;;;5051233;28;20053;-46
2023/07/01 14:25:55;;;;;;;6.72;2.45;;;;;;;;;;5047366;28;20044;-47
2023/07/01 14:28:26;;;;;;;9.40;2.45;;;;;;;;;;5046503;28;20772;-46
2023/07/01 14:31:00;;;;;;;7.30;2.73;;;;;;;;;;5048532;28;20104;-45
2023/07/01 14:33:47;;;;;;;6.78;2.65;;;;;;;;;;5050854;28;20102;-50
2023/07/01 14:36:19;;;;;;;6.93;2.72;;;;;;;;;;5048494;28;20051;-45
2023/07/01 14:38:46;;;;;;;;;;;;;;;;;;5050045;28;20028;-47
2023/07/01 14:41:24;;;;;;;6.60;2.60;;;;;;;;;;5050697;28;20382;-47
2023/07/01 14:43:52;;;;;;;12.23;3.03;;;;;;;;;;5046702;28;20037;-60
2023/07/01 14:46:19;;;;;;;6.30;2.83;;;;;;;;;;5050548;28;20068;-50
2023/07/01 14:48:47;;;;;;;6.75;2.67;;;;;;;;;;5050867;28;20119;-48
2023/07/01 14:51:14;;;;;;;5.43;2.75;;;;;;;;;;5046906;28;20037;-48